Strona główna
METAR-TAF:

METAR-TAF

Lotnisko :

Port lotniczy Genewa-Cointrin

Genewa, Szwajcaria

Szerokość geograficzna: 46-15N, Długość geograficzna: 006-08E, wysokość: 420 m

Aktualna obserwacja pogody

Raport powstał 38 minut temu, godzina 22:20 UTC
Wiatr 1 kt z kierunków zmiennych
Temperatura 2°C
Wilgotność 87%
Ciśnienie 1022 hPa
Widzialność 10 km lub więcej
Brak chmur poniżej 1500 m i brak chmur cumulonimbus

METAR: LSGG 192220Z VRB01KT CAVOK 02/M00 Q1022 NOSIG

czas: 23:58 (22:58 UTC)

Prognoza

Raport powstał 2 godziny i 33 minut temu, godzina 20:25 UTC
Prognoza ważna od 19 godzina 21 UTC do 21 godzina 03 UTC
Wiatr 3 kt z kierunków zmiennych
Widzialność 10 km lub więcej
Brak chmur poniżej 1500 m i brak chmur cumulonimbus
Prawdopodobieństwo 30% :
Przejściowo
od 20 godzina 04 UTC do 20 godzina 08 UTC
Widzialność: 4500 m
zamglenie

TAF: LSGG 192025Z 1921/2103 VRB03KT CAVOK TX09/2015Z TNM01/2006Z PROB30 TEMPO 2004/2008 4500 BR NSC

Obserwacja i prognoza pogody dla ponad 4000 lotnisk (raport METAR i TAF).

Dostępne stacje oznaczono żółtymi i czerwonymi punktami na mapie.

Najedź kursorem aby zobaczyć nazwę stacji.

Kliknij aby zobaczyć obserwacje i prognozy pogody.

Aby zmienić mapę: kliknij na zielony przycisk z czarnym krzyżykiem, aby powiększyć; na zielony przycisk z myślnikiem, aby pomniejszyć; na zielone strzałki, aby przejść do map sąsiednich.


METAR-TAF: